sensor_id;sensor_type;location;lat;lon;timestamp;temperature;humidity
18266;DHT22;9259;48.194;16.322;2022-07-23T00:01:36;26.60;99.90
18266;DHT22;9259;48.194;16.322;2022-07-23T00:04:04;26.60;99.90
18266;DHT22;9259;48.194;16.322;2022-07-23T00:06:32;26.60;99.90
18266;DHT22;9259;48.194;16.322;2022-07-23T00:09:00;26.60;99.90
18266;DHT22;9259;48.194;16.322;2022-07-23T00:11:28;26.70;99.90
18266;DHT22;9259;48.194;16.322;2022-07-23T00:13:59;26.70;99.90
18266;DHT22;9259;48.194;16.322;2022-07-23T00:16:27;26.70;99.90
18266;DHT22;9259;48.194;16.322;2022-07-23T00:18:55;26.70;99.90
18266;DHT22;9259;48.194;16.322;2022-07-23T00:21:23;26.60;99.90
18266;DHT22;9259;48.194;16.322;2022-07-23T00:23:50;26.40;99.90
18266;DHT22;9259;48.194;16.322;2022-07-23T00:26:18;26.40;99.90
18266;DHT22;9259;48.194;16.322;2022-07-23T00:28:46;26.40;99.90
18266;DHT22;9259;48.194;16.322;2022-07-23T00:31:15;26.40;99.90
18266;DHT22;9259;48.194;16.322;2022-07-23T00:33:43;26.40;99.90
18266;DHT22;9259;48.194;16.322;2022-07-23T00:36:11;26.20;99.90
18266;DHT22;9259;48.194;16.322;2022-07-23T00:38:39;26.00;99.90
18266;DHT22;9259;48.194;16.322;2022-07-23T00:41:07;25.90;99.90
18266;DHT22;9259;48.194;16.322;2022-07-23T00:43:35;25.80;99.90
18266;DHT22;9259;48.194;16.322;2022-07-23T00:46:03;25.70;99.90
18266;DHT22;9259;48.194;16.322;2022-07-23T00:48:32;25.80;99.90
18266;DHT22;9259;48.194;16.322;2022-07-23T00:51:00;25.80;99.90
18266;DHT22;9259;48.194;16.322;2022-07-23T00:53:30;25.80;99.90
18266;DHT22;9259;48.194;16.322;2022-07-23T00:55:58;25.80;99.90
18266;DHT22;9259;48.194;16.322;2022-07-23T00:58:26;25.80;99.90
18266;DHT22;9259;48.194;16.322;2022-07-23T01:00:54;25.80;99.90
18266;DHT22;9259;48.194;16.322;2022-07-23T01:03:22;25.90;99.90
18266;DHT22;9259;48.194;16.322;2022-07-23T01:05:51;26.00;99.90
18266;DHT22;9259;48.194;16.322;2022-07-23T01:08:19;26.00;99.90
18266;DHT22;9259;48.194;16.322;2022-07-23T01:10:48;26.00;99.90
18266;DHT22;9259;48.194;16.322;2022-07-23T01:13:17;26.00;99.90
18266;DHT22;9259;48.194;16.322;2022-07-23T01:15:45;26.00;99.90
18266;DHT22;9259;48.194;16.322;2022-07-23T01:18:16;26.00;99.90
18266;DHT22;9259;48.194;16.322;2022-07-23T01:20:43;26.00;99.90
18266;DHT22;9259;48.194;16.322;2022-07-23T01:23:13;25.90;99.90
18266;DHT22;9259;48.194;16.322;2022-07-23T01:25:47;25.90;99.90
18266;DHT22;9259;48.194;16.322;2022-07-23T01:28:15;25.90;99.90
18266;DHT22;9259;48.194;16.322;2022-07-23T01:30:44;25.90;99.90
18266;DHT22;9259;48.194;16.322;2022-07-23T01:33:12;25.80;99.90
18266;DHT22;9259;48.194;16.322;2022-07-23T07:15:18;25.50;99.90
18266;DHT22;9259;48.194;16.322;2022-07-23T07:17:46;28.90;99.90
18266;DHT22;9259;48.194;16.322;2022-07-23T07:20:15;29.00;99.90
18266;DHT22;9259;48.194;16.322;2022-07-23T07:22:43;29.00;99.90
18266;DHT22;9259;48.194;16.322;2022-07-23T07:25:11;29.10;99.90
18266;DHT22;9259;48.194;16.322;2022-07-23T07:27:42;29.20;99.90
18266;DHT22;9259;48.194;16.322;2022-07-23T07:30:11;29.20;99.90
18266;DHT22;9259;48.194;16.322;2022-07-23T07:32:39;29.10;99.90
18266;DHT22;9259;48.194;16.322;2022-07-23T07:35:08;29.30;99.90
18266;DHT22;9259;48.194;16.322;2022-07-23T07:37:38;29.30;99.90
18266;DHT22;9259;48.194;16.322;2022-07-23T07:40:07;29.20;99.90
18266;DHT22;9259;48.194;16.322;2022-07-23T07:42:44;29.20;99.90
18266;DHT22;9259;48.194;16.322;2022-07-23T07:45:12;28.90;99.90
18266;DHT22;9259;48.194;16.322;2022-07-23T07:47:41;29.10;99.90
18266;DHT22;9259;48.194;16.322;2022-07-23T07:50:09;28.90;99.90
18266;DHT22;9259;48.194;16.322;2022-07-23T07:52:38;29.20;99.90
18266;DHT22;9259;48.194;16.322;2022-07-23T07:55:11;29.40;99.90
18266;DHT22;9259;48.194;16.322;2022-07-23T07:57:40;29.40;99.90
18266;DHT22;9259;48.194;16.322;2022-07-23T08:00:09;29.50;99.90
18266;DHT22;9259;48.194;16.322;2022-07-23T08:02:42;29.50;99.90
18266;DHT22;9259;48.194;16.322;2022-07-23T08:05:11;29.50;99.90
18266;DHT22;9259;48.194;16.322;2022-07-23T08:07:41;29.70;99.90
18266;DHT22;9259;48.194;16.322;2022-07-23T08:10:09;29.60;99.90
18266;DHT22;9259;48.194;16.322;2022-07-23T08:12:39;29.80;99.90
18266;DHT22;9259;48.194;16.322;2022-07-23T08:15:11;29.70;99.90
18266;DHT22;9259;48.194;16.322;2022-07-23T08:17:40;30.10;99.90
18266;DHT22;9259;48.194;16.322;2022-07-23T08:20:10;30.30;99.90
18266;DHT22;9259;48.194;16.322;2022-07-23T08:22:46;30.40;99.90
18266;DHT22;9259;48.194;16.322;2022-07-23T08:25:16;30.90;99.90
18266;DHT22;9259;48.194;16.322;2022-07-23T08:27:51;31.50;99.90
18266;DHT22;9259;48.194;16.322;2022-07-23T08:30:19;31.30;99.90
18266;DHT22;9259;48.194;16.322;2022-07-23T08:32:52;31.40;99.90
18266;DHT22;9259;48.194;16.322;2022-07-23T08:35:25;31.60;99.90
18266;DHT22;9259;48.194;16.322;2022-07-23T08:37:56;31.80;99.90
18266;DHT22;9259;48.194;16.322;2022-07-23T08:40:26;32.30;99.90
18266;DHT22;9259;48.194;16.322;2022-07-23T08:42:56;33.00;99.90
18266;DHT22;9259;48.194;16.322;2022-07-23T08:45:26;32.90;99.90
18266;DHT22;9259;48.194;16.322;2022-07-23T08:47:56;32.90;99.90
18266;DHT22;9259;48.194;16.322;2022-07-23T08:50:26;33.80;99.90
18266;DHT22;9259;48.194;16.322;2022-07-23T08:52:55;34.00;99.40
18266;DHT22;9259;48.194;16.322;2022-07-23T08:55:25;33.80;99.20
18266;DHT22;9259;48.194;16.322;2022-07-23T08:57:53;34.20;98.60
18266;DHT22;9259;48.194;16.322;2022-07-23T09:00:22;34.20;98.50
18266;DHT22;9259;48.194;16.322;2022-07-23T09:02:50;33.20;98.70
18266;DHT22;9259;48.194;16.322;2022-07-23T09:05:19;32.20;99.80
18266;DHT22;9259;48.194;16.322;2022-07-23T09:08:08;32.30;99.90
18266;DHT22;9259;48.194;16.322;2022-07-23T09:10:59;32.50;99.90
18266;DHT22;9259;48.194;16.322;2022-07-23T09:13:33;32.40;99.90
18266;DHT22;9259;48.194;16.322;2022-07-23T09:16:06;33.30;99.10
18266;DHT22;9259;48.194;16.322;2022-07-23T09:18:42;33.70;98.30
18266;DHT22;9259;48.194;16.322;2022-07-23T09:21:14;34.00;97.80
18266;DHT22;9259;48.194;16.322;2022-07-23T09:23:56;34.70;96.90
18266;DHT22;9259;48.194;16.322;2022-07-23T09:26:27;35.10;96.20
18266;DHT22;9259;48.194;16.322;2022-07-23T09:29:05;34.80;95.90
18266;DHT22;9259;48.194;16.322;2022-07-23T09:31:44;34.80;96.10
18266;DHT22;9259;48.194;16.322;2022-07-23T09:34:15;34.90;95.80
18266;DHT22;9259;48.194;16.322;2022-07-23T09:36:45;35.40;95.20
18266;DHT22;9259;48.194;16.322;2022-07-23T09:39:24;35.50;95.00
18266;DHT22;9259;48.194;16.322;2022-07-23T09:41:54;34.90;95.10
18266;DHT22;9259;48.194;16.322;2022-07-23T09:44:22;34.40;95.30
18266;DHT22;9259;48.194;16.322;2022-07-23T09:46:58;34.50;94.80
18266;DHT22;9259;48.194;16.322;2022-07-23T09:49:27;34.50;94.60
18266;DHT22;9259;48.194;16.322;2022-07-23T09:51:58;34.80;94.60
18266;DHT22;9259;48.194;16.322;2022-07-23T09:54:31;34.60;94.70
18266;DHT22;9259;48.194;16.322;2022-07-23T09:57:03;34.20;95.10
18266;DHT22;9259;48.194;16.322;2022-07-23T09:59:36;34.50;95.30
18266;DHT22;9259;48.194;16.322;2022-07-23T10:02:06;35.00;95.30
18266;DHT22;9259;48.194;16.322;2022-07-23T10:04:36;35.30;94.60
18266;DHT22;9259;48.194;16.322;2022-07-23T10:07:07;35.60;94.30
18266;DHT22;9259;48.194;16.322;2022-07-23T12:45:52;36.00;94.10
18266;DHT22;9259;48.194;16.322;2022-07-23T12:48:23;31.70;94.80
18266;DHT22;9259;48.194;16.322;2022-07-23T12:50:54;31.70;94.70
18266;DHT22;9259;48.194;16.322;2022-07-23T12:53:29;31.40;94.30
18266;DHT22;9259;48.194;16.322;2022-07-23T12:56:04;31.30;94.20
18266;DHT22;9259;48.194;16.322;2022-07-23T12:58:44;31.40;93.70
18266;DHT22;9259;48.194;16.322;2022-07-23T13:01:24;31.40;93.20
18266;DHT22;9259;48.194;16.322;2022-07-23T13:04:02;31.30;92.80
18266;DHT22;9259;48.194;16.322;2022-07-23T13:06:32;31.40;92.40
18266;DHT22;9259;48.194;16.322;2022-07-23T13:09:02;31.30;91.40
18266;DHT22;9259;48.194;16.322;2022-07-23T14:38:11;31.50;91.10
18266;DHT22;9259;48.194;16.322;2022-07-23T14:40:44;34.40;79.60
18266;DHT22;9259;48.194;16.322;2022-07-23T14:43:13;35.10;78.50
18266;DHT22;9259;48.194;16.322;2022-07-23T14:45:41;35.40;77.50
18266;DHT22;9259;48.194;16.322;2022-07-23T14:48:09;35.20;77.40
18266;DHT22;9259;48.194;16.322;2022-07-23T14:50:37;34.80;78.40
18266;DHT22;9259;48.194;16.322;2022-07-23T14:53:04;34.70;78.90
18266;DHT22;9259;48.194;16.322;2022-07-23T14:55:32;34.10;80.10
18266;DHT22;9259;48.194;16.322;2022-07-23T14:58:00;34.20;80.50
18266;DHT22;9259;48.194;16.322;2022-07-23T15:00:30;34.20;81.50
18266;DHT22;9259;48.194;16.322;2022-07-23T15:02:57;34.60;81.60
18266;DHT22;9259;48.194;16.322;2022-07-23T15:05:25;34.90;82.10
18266;DHT22;9259;48.194;16.322;2022-07-23T15:07:54;35.30;82.00
18266;DHT22;9259;48.194;16.322;2022-07-23T15:10:22;35.50;82.00
18266;DHT22;9259;48.194;16.322;2022-07-23T15:12:50;35.30;82.50
18266;DHT22;9259;48.194;16.322;2022-07-23T15:15:18;35.30;82.50
18266;DHT22;9259;48.194;16.322;2022-07-23T15:17:47;34.70;83.90
18266;DHT22;9259;48.194;16.322;2022-07-23T15:20:15;34.90;84.10
18266;DHT22;9259;48.194;16.322;2022-07-23T15:22:43;35.50;83.50
18266;DHT22;9259;48.194;16.322;2022-07-23T15:25:14;35.10;83.90
18266;DHT22;9259;48.194;16.322;2022-07-23T15:27:41;34.80;84.10
18266;DHT22;9259;48.194;16.322;2022-07-23T15:30:10;34.40;84.60
18266;DHT22;9259;48.194;16.322;2022-07-23T15:32:38;34.50;84.90
18266;DHT22;9259;48.194;16.322;2022-07-23T15:35:08;34.70;84.90
18266;DHT22;9259;48.194;16.322;2022-07-23T15:37:36;35.10;83.70
18266;DHT22;9259;48.194;16.322;2022-07-23T15:40:07;35.20;83.20
18266;DHT22;9259;48.194;16.322;2022-07-23T15:42:36;35.00;83.20
18266;DHT22;9259;48.194;16.322;2022-07-23T15:45:05;33.90;84.80
18266;DHT22;9259;48.194;16.322;2022-07-23T15:47:34;33.30;85.70
18266;DHT22;9259;48.194;16.322;2022-07-23T15:50:02;32.90;86.40
18266;DHT22;9259;48.194;16.322;2022-07-23T15:52:32;32.80;86.90
18266;DHT22;9259;48.194;16.322;2022-07-23T15:55:00;32.80;86.60
18266;DHT22;9259;48.194;16.322;2022-07-23T15:57:28;32.90;86.70
18266;DHT22;9259;48.194;16.322;2022-07-23T15:59:56;33.00;87.10
18266;DHT22;9259;48.194;16.322;2022-07-23T16:02:26;32.80;87.60
18266;DHT22;9259;48.194;16.322;2022-07-23T16:04:54;32.60;87.70
18266;DHT22;9259;48.194;16.322;2022-07-23T16:07:23;32.50;88.40
18266;DHT22;9259;48.194;16.322;2022-07-23T16:09:52;32.60;88.80
18266;DHT22;9259;48.194;16.322;2022-07-23T16:12:20;32.50;89.30
18266;DHT22;9259;48.194;16.322;2022-07-23T16:14:48;32.30;89.50
18266;DHT22;9259;48.194;16.322;2022-07-23T16:17:16;32.50;89.50
18266;DHT22;9259;48.194;16.322;2022-07-23T16:19:43;32.60;89.50
18266;DHT22;9259;48.194;16.322;2022-07-23T16:22:12;32.60;89.30
18266;DHT22;9259;48.194;16.322;2022-07-23T16:24:42;32.50;89.60
18266;DHT22;9259;48.194;16.322;2022-07-23T16:27:13;32.30;89.00
18266;DHT22;9259;48.194;16.322;2022-07-23T16:29:41;32.10;88.90
18266;DHT22;9259;48.194;16.322;2022-07-23T16:32:09;32.10;89.00
18266;DHT22;9259;48.194;16.322;2022-07-23T16:34:37;32.30;88.00
18266;DHT22;9259;48.194;16.322;2022-07-23T16:37:06;32.30;87.20
18266;DHT22;9259;48.194;16.322;2022-07-23T16:39:35;32.30;86.70
18266;DHT22;9259;48.194;16.322;2022-07-23T16:42:03;32.30;87.10
18266;DHT22;9259;48.194;16.322;2022-07-23T16:44:33;32.50;87.30
18266;DHT22;9259;48.194;16.322;2022-07-23T16:47:01;32.30;87.50
18266;DHT22;9259;48.194;16.322;2022-07-23T16:49:28;31.90;88.40
18266;DHT22;9259;48.194;16.322;2022-07-23T16:51:56;31.90;88.90
18266;DHT22;9259;48.194;16.322;2022-07-23T16:54:24;31.80;89.10
18266;DHT22;9259;48.194;16.322;2022-07-23T16:56:53;31.70;89.30
18266;DHT22;9259;48.194;16.322;2022-07-23T16:59:21;31.80;89.40
18266;DHT22;9259;48.194;16.322;2022-07-23T17:01:50;31.80;89.20
18266;DHT22;9259;48.194;16.322;2022-07-23T17:04:19;31.80;89.40
18266;DHT22;9259;48.194;16.322;2022-07-23T17:06:47;31.70;89.60
18266;DHT22;9259;48.194;16.322;2022-07-23T17:09:15;31.50;90.00
18266;DHT22;9259;48.194;16.322;2022-07-23T17:11:43;31.30;90.30
18266;DHT22;9259;48.194;16.322;2022-07-23T17:14:11;31.00;90.70
18266;DHT22;9259;48.194;16.322;2022-07-23T17:16:39;30.90;91.20
18266;DHT22;9259;48.194;16.322;2022-07-23T17:19:08;30.60;91.60
18266;DHT22;9259;48.194;16.322;2022-07-23T17:21:36;30.60;91.80
18266;DHT22;9259;48.194;16.322;2022-07-23T17:24:04;30.50;92.10
18266;DHT22;9259;48.194;16.322;2022-07-23T17:26:33;30.40;92.40
18266;DHT22;9259;48.194;16.322;2022-07-23T17:29:01;30.40;92.60
18266;DHT22;9259;48.194;16.322;2022-07-23T17:31:29;30.30;92.80
18266;DHT22;9259;48.194;16.322;2022-07-23T17:33:57;30.30;92.90
18266;DHT22;9259;48.194;16.322;2022-07-23T17:36:26;30.20;93.10
18266;DHT22;9259;48.194;16.322;2022-07-23T17:38:55;30.20;93.30
18266;DHT22;9259;48.194;16.322;2022-07-23T17:41:23;30.10;93.50
18266;DHT22;9259;48.194;16.322;2022-07-23T17:43:53;30.00;93.60
18266;DHT22;9259;48.194;16.322;2022-07-23T17:46:21;30.00;93.90
18266;DHT22;9259;48.194;16.322;2022-07-23T17:48:49;30.00;94.00
18266;DHT22;9259;48.194;16.322;2022-07-23T17:51:16;29.90;94.10
18266;DHT22;9259;48.194;16.322;2022-07-23T17:53:46;29.80;94.20
18266;DHT22;9259;48.194;16.322;2022-07-23T17:56:14;29.80;94.40
18266;DHT22;9259;48.194;16.322;2022-07-23T17:58:42;29.80;94.50
18266;DHT22;9259;48.194;16.322;2022-07-23T18:01:10;29.70;94.70
18266;DHT22;9259;48.194;16.322;2022-07-23T18:03:39;29.70;94.90
18266;DHT22;9259;48.194;16.322;2022-07-23T18:06:08;29.60;95.10
18266;DHT22;9259;48.194;16.322;2022-07-23T18:08:36;29.60;95.30
18266;DHT22;9259;48.194;16.322;2022-07-23T18:11:05;29.60;95.30
18266;DHT22;9259;48.194;16.322;2022-07-23T18:13:33;29.50;95.40
18266;DHT22;9259;48.194;16.322;2022-07-23T18:16:01;29.50;95.60
18266;DHT22;9259;48.194;16.322;2022-07-23T18:18:29;29.50;95.60
18266;DHT22;9259;48.194;16.322;2022-07-23T18:20:57;29.40;95.70
18266;DHT22;9259;48.194;16.322;2022-07-23T18:23:25;29.40;95.80
18266;DHT22;9259;48.194;16.322;2022-07-23T18:25:52;29.40;95.90
18266;DHT22;9259;48.194;16.322;2022-07-23T18:28:22;29.40;96.00
18266;DHT22;9259;48.194;16.322;2022-07-23T18:30:50;29.40;96.10
18266;DHT22;9259;48.194;16.322;2022-07-23T18:33:18;29.30;96.30
18266;DHT22;9259;48.194;16.322;2022-07-23T18:35:46;29.20;96.40
18266;DHT22;9259;48.194;16.322;2022-07-23T18:38:14;29.30;96.60
18266;DHT22;9259;48.194;16.322;2022-07-23T18:40:43;29.20;96.80
18266;DHT22;9259;48.194;16.322;2022-07-23T18:43:10;29.10;96.90
18266;DHT22;9259;48.194;16.322;2022-07-23T18:45:43;29.10;97.10
18266;DHT22;9259;48.194;16.322;2022-07-23T18:48:11;29.00;97.30
18266;DHT22;9259;48.194;16.322;2022-07-23T18:50:40;29.10;97.30
18266;DHT22;9259;48.194;16.322;2022-07-23T18:53:09;29.10;97.30
18266;DHT22;9259;48.194;16.322;2022-07-23T18:55:37;29.10;97.30
18266;DHT22;9259;48.194;16.322;2022-07-23T18:58:06;29.10;97.50
18266;DHT22;9259;48.194;16.322;2022-07-23T19:00:35;29.10;97.50
18266;DHT22;9259;48.194;16.322;2022-07-23T19:03:05;29.10;97.50
18266;DHT22;9259;48.194;16.322;2022-07-23T19:05:33;29.10;97.60
18266;DHT22;9259;48.194;16.322;2022-07-23T19:08:02;29.00;97.80
18266;DHT22;9259;48.194;16.322;2022-07-23T19:10:32;29.00;98.00
18266;DHT22;9259;48.194;16.322;2022-07-23T19:13:00;28.90;98.20
18266;DHT22;9259;48.194;16.322;2022-07-23T19:15:28;28.90;98.50
18266;DHT22;9259;48.194;16.322;2022-07-23T19:17:55;28.80;98.70
18266;DHT22;9259;48.194;16.322;2022-07-23T19:20:25;28.80;99.00
18266;DHT22;9259;48.194;16.322;2022-07-23T19:22:53;28.70;99.30
18266;DHT22;9259;48.194;16.322;2022-07-23T19:25:21;28.60;99.70
18266;DHT22;9259;48.194;16.322;2022-07-23T19:27:48;28.60;99.90
18266;DHT22;9259;48.194;16.322;2022-07-23T19:30:16;28.50;99.90
18266;DHT22;9259;48.194;16.322;2022-07-23T19:32:47;28.50;99.90
18266;DHT22;9259;48.194;16.322;2022-07-23T19:35:16;28.30;99.90
18266;DHT22;9259;48.194;16.322;2022-07-23T19:37:45;28.20;99.90
18266;DHT22;9259;48.194;16.322;2022-07-23T19:40:13;28.10;99.90
18266;DHT22;9259;48.194;16.322;2022-07-23T19:42:40;28.10;99.90
18266;DHT22;9259;48.194;16.322;2022-07-23T19:45:09;28.00;99.90
18266;DHT22;9259;48.194;16.322;2022-07-23T19:47:37;28.00;99.90
18266;DHT22;9259;48.194;16.322;2022-07-23T19:50:10;27.90;99.90
18266;DHT22;9259;48.194;16.322;2022-07-23T19:52:41;27.80;99.90
18266;DHT22;9259;48.194;16.322;2022-07-23T19:55:10;27.80;99.90
18266;DHT22;9259;48.194;16.322;2022-07-23T19:57:38;27.80;99.90
18266;DHT22;9259;48.194;16.322;2022-07-23T20:00:08;27.70;99.90
18266;DHT22;9259;48.194;16.322;2022-07-23T20:02:37;27.70;99.90
18266;DHT22;9259;48.194;16.322;2022-07-23T20:05:06;27.70;99.90
18266;DHT22;9259;48.194;16.322;2022-07-23T20:07:36;27.60;99.90
18266;DHT22;9259;48.194;16.322;2022-07-23T20:10:06;27.60;99.90
18266;DHT22;9259;48.194;16.322;2022-07-23T20:12:37;27.50;99.90
18266;DHT22;9259;48.194;16.322;2022-07-23T20:15:06;27.50;99.90
18266;DHT22;9259;48.194;16.322;2022-07-23T20:17:36;27.40;99.90
18266;DHT22;9259;48.194;16.322;2022-07-23T20:20:06;27.40;99.90
18266;DHT22;9259;48.194;16.322;2022-07-23T20:22:36;27.40;99.90
18266;DHT22;9259;48.194;16.322;2022-07-23T20:25:05;27.30;99.90
18266;DHT22;9259;48.194;16.322;2022-07-23T20:27:33;27.20;99.90
18266;DHT22;9259;48.194;16.322;2022-07-23T20:30:04;27.20;99.90
18266;DHT22;9259;48.194;16.322;2022-07-23T20:32:33;27.20;99.90
18266;DHT22;9259;48.194;16.322;2022-07-23T20:35:01;27.10;99.90
18266;DHT22;9259;48.194;16.322;2022-07-23T20:37:29;27.10;99.90
